Accueil
METAR-TAF:

METAR-TAF

Aéroports :

Southampton, Angleterre

Aéroport de Southampton

latitude: 50-54N, longitude: 001-24W, altitude: 9 m

Observation

Le bulletin a été fait il y a 3 heures et 56 minutes, à 21:50 UTC
Vent 9 kt de sud-ouest, variant entre sud et ouest
Température 16°C
Humidité 77%
Pression 1017 hPa
Visibilité 10 km ou plus
Quelques nuages à une hauteur de 2000 ft

METAR: EGHI 232150Z 23009KT 180V260 9999 FEW020 16/12 Q1017

Heure: 02:46 (01:46 UTC)

Prévision

Le bulletin a été fait il y a 8 heures et 47 minutes, à 16:59 UTC
Prévision valable du 23 à 18 UTC au 23 à 22 UTC
Vent 10 kt de ouest/sud-ouest
Visibilité 10 km ou plus
Nuages épars à une hauteur de 2500 ft

TAF: EGHI 231659Z 2318/2322 24010KT 9999 SCT025

Observations et prévisions météorologiques de plus de 4000 aéroports (messages METAR et TAF).

Les stations disponibles sont représentées par des disques jaunes et rouges sur la carte.

Passer la souris dessus pour voir le nom de la station.

Cliquer dessus pour voir les observations et prévisions météorologiques.

Pour changer de carte: cliquez sur les boutons verts avec une croix noire pour zoomer, sur le bouton vert avec un tiret pour effectuer un zoom arrière, ou sur les flèches vertes pour les cartes adjacentes.


METAR-TAF: